sensor_id;sensor_type;location;lat;lon;timestamp;temperature;humidity
9998;DHT22;5038;53.064;8.624;2024-01-15T00:01:14;2.00;99.90
9998;DHT22;5038;53.064;8.624;2024-01-15T00:03:43;2.00;99.90
9998;DHT22;5038;53.064;8.624;2024-01-15T00:06:14;2.00;99.90
9998;DHT22;5038;53.064;8.624;2024-01-15T00:08:42;1.90;99.90
9998;DHT22;5038;53.064;8.624;2024-01-15T00:11:11;2.00;99.90
9998;DHT22;5038;53.064;8.624;2024-01-15T00:13:39;1.90;99.90
9998;DHT22;5038;53.064;8.624;2024-01-15T00:16:09;1.90;99.90
9998;DHT22;5038;53.064;8.624;2024-01-15T00:18:38;2.00;99.90
9998;DHT22;5038;53.064;8.624;2024-01-15T00:21:07;2.00;99.90
9998;DHT22;5038;53.064;8.624;2024-01-15T00:23:35;2.00;99.90
9998;DHT22;5038;53.064;8.624;2024-01-15T00:26:04;2.00;99.90
9998;DHT22;5038;53.064;8.624;2024-01-15T00:28:36;2.00;99.90
9998;DHT22;5038;53.064;8.624;2024-01-15T00:31:05;2.00;99.90
9998;DHT22;5038;53.064;8.624;2024-01-15T00:33:35;2.00;99.90
9998;DHT22;5038;53.064;8.624;2024-01-15T00:36:04;2.00;99.90
9998;DHT22;5038;53.064;8.624;2024-01-15T00:38:32;2.00;99.90
9998;DHT22;5038;53.064;8.624;2024-01-15T00:41:01;2.00;99.90
9998;DHT22;5038;53.064;8.624;2024-01-15T00:43:29;2.00;99.90
9998;DHT22;5038;53.064;8.624;2024-01-15T00:45:58;2.00;99.90
9998;DHT22;5038;53.064;8.624;2024-01-15T00:48:26;2.10;99.90
9998;DHT22;5038;53.064;8.624;2024-01-15T00:50:56;2.10;99.90
9998;DHT22;5038;53.064;8.624;2024-01-15T00:53:25;2.10;99.90
9998;DHT22;5038;53.064;8.624;2024-01-15T00:55:53;2.10;99.90
9998;DHT22;5038;53.064;8.624;2024-01-15T00:58:21;2.10;99.90
9998;DHT22;5038;53.064;8.624;2024-01-15T01:00:50;2.10;99.90
9998;DHT22;5038;53.064;8.624;2024-01-15T01:03:18;2.10;99.90
9998;DHT22;5038;53.064;8.624;2024-01-15T01:05:48;2.10;99.90
9998;DHT22;5038;53.064;8.624;2024-01-15T01:08:18;2.10;99.90
9998;DHT22;5038;53.064;8.624;2024-01-15T01:10:46;2.10;99.90
9998;DHT22;5038;53.064;8.624;2024-01-15T01:13:14;2.10;99.90
9998;DHT22;5038;53.064;8.624;2024-01-15T01:15:43;2.10;99.90
9998;DHT22;5038;53.064;8.624;2024-01-15T01:18:11;2.10;99.90
9998;DHT22;5038;53.064;8.624;2024-01-15T01:20:40;2.10;99.90
9998;DHT22;5038;53.064;8.624;2024-01-15T01:23:08;2.10;99.90
9998;DHT22;5038;53.064;8.624;2024-01-15T01:25:38;2.10;99.90
9998;DHT22;5038;53.064;8.624;2024-01-15T01:28:06;2.10;99.90
9998;DHT22;5038;53.064;8.624;2024-01-15T01:30:34;2.00;99.90
9998;DHT22;5038;53.064;8.624;2024-01-15T01:33:03;2.10;99.90
9998;DHT22;5038;53.064;8.624;2024-01-15T01:35:31;2.10;99.90
9998;DHT22;5038;53.064;8.624;2024-01-15T01:38:00;2.10;99.90
9998;DHT22;5038;53.064;8.624;2024-01-15T01:40:28;2.10;99.90
9998;DHT22;5038;53.064;8.624;2024-01-15T01:42:58;2.10;99.90
9998;DHT22;5038;53.064;8.624;2024-01-15T01:45:26;2.00;99.90
9998;DHT22;5038;53.064;8.624;2024-01-15T01:47:54;2.00;99.90
9998;DHT22;5038;53.064;8.624;2024-01-15T01:50:23;2.00;99.90
9998;DHT22;5038;53.064;8.624;2024-01-15T01:52:51;2.00;99.90
9998;DHT22;5038;53.064;8.624;2024-01-15T01:55:21;2.00;99.90
9998;DHT22;5038;53.064;8.624;2024-01-15T01:57:52;1.90;99.90
9998;DHT22;5038;53.064;8.624;2024-01-15T02:00:21;1.90;99.90
9998;DHT22;5038;53.064;8.624;2024-01-15T02:02:50;1.90;99.90
9998;DHT22;5038;53.064;8.624;2024-01-15T02:05:19;1.90;99.90
9998;DHT22;5038;53.064;8.624;2024-01-15T02:07:49;1.90;99.90
9998;DHT22;5038;53.064;8.624;2024-01-15T02:10:17;1.90;99.90
9998;DHT22;5038;53.064;8.624;2024-01-15T02:12:46;1.90;99.90
9998;DHT22;5038;53.064;8.624;2024-01-15T02:15:15;1.90;99.90
9998;DHT22;5038;53.064;8.624;2024-01-15T02:17:58;1.90;99.90
9998;DHT22;5038;53.064;8.624;2024-01-15T02:20:27;1.90;99.90
9998;DHT22;5038;53.064;8.624;2024-01-15T02:23:06;1.90;99.90
9998;DHT22;5038;53.064;8.624;2024-01-15T02:25:35;1.90;99.90
9998;DHT22;5038;53.064;8.624;2024-01-15T02:28:04;2.00;99.90
9998;DHT22;5038;53.064;8.624;2024-01-15T02:30:35;2.00;99.90
9998;DHT22;5038;53.064;8.624;2024-01-15T02:33:05;2.00;99.90
9998;DHT22;5038;53.064;8.624;2024-01-15T02:35:34;2.00;99.90
9998;DHT22;5038;53.064;8.624;2024-01-15T02:38:05;2.00;99.90
9998;DHT22;5038;53.064;8.624;2024-01-15T02:40:34;2.00;99.90
9998;DHT22;5038;53.064;8.624;2024-01-15T02:43:03;2.00;99.90
9998;DHT22;5038;53.064;8.624;2024-01-15T02:45:31;2.00;99.90
9998;DHT22;5038;53.064;8.624;2024-01-15T02:47:59;2.00;99.90
9998;DHT22;5038;53.064;8.624;2024-01-15T02:50:28;2.00;99.90
9998;DHT22;5038;53.064;8.624;2024-01-15T02:52:56;2.00;99.90
9998;DHT22;5038;53.064;8.624;2024-01-15T02:55:26;2.00;99.90
9998;DHT22;5038;53.064;8.624;2024-01-15T02:57:56;2.00;99.90
9998;DHT22;5038;53.064;8.624;2024-01-15T03:00:24;2.10;99.90
9998;DHT22;5038;53.064;8.624;2024-01-15T03:02:54;2.10;99.90
9998;DHT22;5038;53.064;8.624;2024-01-15T03:05:22;2.10;99.90
9998;DHT22;5038;53.064;8.624;2024-01-15T03:07:51;2.00;99.90
9998;DHT22;5038;53.064;8.624;2024-01-15T03:10:19;2.00;99.90
9998;DHT22;5038;53.064;8.624;2024-01-15T03:12:48;2.10;99.90
9998;DHT22;5038;53.064;8.624;2024-01-15T03:15:17;2.00;99.90
9998;DHT22;5038;53.064;8.624;2024-01-15T03:17:46;2.00;99.90
9998;DHT22;5038;53.064;8.624;2024-01-15T03:20:14;2.00;99.90
9998;DHT22;5038;53.064;8.624;2024-01-15T03:22:43;2.00;99.90
9998;DHT22;5038;53.064;8.624;2024-01-15T03:25:11;2.10;99.90
9998;DHT22;5038;53.064;8.624;2024-01-15T03:27:39;2.00;99.90
9998;DHT22;5038;53.064;8.624;2024-01-15T03:30:10;2.10;99.90
9998;DHT22;5038;53.064;8.624;2024-01-15T03:32:39;2.00;99.90
9998;DHT22;5038;53.064;8.624;2024-01-15T03:35:07;2.00;99.90
9998;DHT22;5038;53.064;8.624;2024-01-15T03:37:36;2.10;99.90
9998;DHT22;5038;53.064;8.624;2024-01-15T03:40:05;2.00;99.90
9998;DHT22;5038;53.064;8.624;2024-01-15T03:42:34;2.10;99.90
9998;DHT22;5038;53.064;8.624;2024-01-15T03:45:02;2.00;99.90
9998;DHT22;5038;53.064;8.624;2024-01-15T03:47:32;2.00;99.90
9998;DHT22;5038;53.064;8.624;2024-01-15T03:50:00;2.00;99.90
9998;DHT22;5038;53.064;8.624;2024-01-15T03:52:29;2.00;99.90
9998;DHT22;5038;53.064;8.624;2024-01-15T03:54:57;2.00;99.90
9998;DHT22;5038;53.064;8.624;2024-01-15T03:57:26;2.00;99.90
9998;DHT22;5038;53.064;8.624;2024-01-15T03:59:54;2.10;99.90
9998;DHT22;5038;53.064;8.624;2024-01-15T04:02:23;2.00;99.90
9998;DHT22;5038;53.064;8.624;2024-01-15T04:04:52;2.00;99.90
9998;DHT22;5038;53.064;8.624;2024-01-15T04:07:21;2.10;99.90
9998;DHT22;5038;53.064;8.624;2024-01-15T04:09:49;2.00;99.90
9998;DHT22;5038;53.064;8.624;2024-01-15T04:12:18;2.00;99.90
9998;DHT22;5038;53.064;8.624;2024-01-15T04:14:46;2.00;99.90
9998;DHT22;5038;53.064;8.624;2024-01-15T04:17:14;2.10;99.90
9998;DHT22;5038;53.064;8.624;2024-01-15T04:19:43;2.10;99.90
9998;DHT22;5038;53.064;8.624;2024-01-15T04:22:14;2.10;99.90
9998;DHT22;5038;53.064;8.624;2024-01-15T04:24:42;2.10;99.90
9998;DHT22;5038;53.064;8.624;2024-01-15T04:27:10;2.10;99.90
9998;DHT22;5038;53.064;8.624;2024-01-15T04:29:39;2.10;99.90
9998;DHT22;5038;53.064;8.624;2024-01-15T04:32:08;2.10;99.90
9998;DHT22;5038;53.064;8.624;2024-01-15T04:34:36;2.20;99.90
9998;DHT22;5038;53.064;8.624;2024-01-15T04:37:05;2.20;99.90
9998;DHT22;5038;53.064;8.624;2024-01-15T04:39:34;2.20;99.90
9998;DHT22;5038;53.064;8.624;2024-01-15T04:42:03;2.20;99.90
9998;DHT22;5038;53.064;8.624;2024-01-15T04:44:32;2.20;99.90
9998;DHT22;5038;53.064;8.624;2024-01-15T04:47:00;2.20;99.90
9998;DHT22;5038;53.064;8.624;2024-01-15T04:49:28;2.30;99.90
9998;DHT22;5038;53.064;8.624;2024-01-15T04:51:57;2.30;99.90
9998;DHT22;5038;53.064;8.624;2024-01-15T04:54:25;2.20;99.90
9998;DHT22;5038;53.064;8.624;2024-01-15T04:56:55;2.20;99.90
9998;DHT22;5038;53.064;8.624;2024-01-15T04:59:23;2.30;99.90
9998;DHT22;5038;53.064;8.624;2024-01-15T05:01:51;2.20;99.90
9998;DHT22;5038;53.064;8.624;2024-01-15T05:04:20;2.20;99.90
9998;DHT22;5038;53.064;8.624;2024-01-15T05:06:49;2.20;99.90
9998;DHT22;5038;53.064;8.624;2024-01-15T05:09:17;2.20;99.90
9998;DHT22;5038;53.064;8.624;2024-01-15T05:11:47;2.10;99.90
9998;DHT22;5038;53.064;8.624;2024-01-15T05:14:18;2.20;99.90
9998;DHT22;5038;53.064;8.624;2024-01-15T05:16:47;2.20;99.90
9998;DHT22;5038;53.064;8.624;2024-01-15T05:19:15;2.10;99.90
9998;DHT22;5038;53.064;8.624;2024-01-15T05:21:44;2.10;99.90
9998;DHT22;5038;53.064;8.624;2024-01-15T05:24:12;2.10;99.90
9998;DHT22;5038;53.064;8.624;2024-01-15T05:26:41;2.10;99.90
9998;DHT22;5038;53.064;8.624;2024-01-15T05:29:09;2.10;99.90
9998;DHT22;5038;53.064;8.624;2024-01-15T05:31:39;2.10;99.90
9998;DHT22;5038;53.064;8.624;2024-01-15T05:34:07;2.10;99.90
9998;DHT22;5038;53.064;8.624;2024-01-15T05:36:36;2.10;99.90
9998;DHT22;5038;53.064;8.624;2024-01-15T05:39:04;2.00;99.90
9998;DHT22;5038;53.064;8.624;2024-01-15T05:41:32;2.00;99.90
9998;DHT22;5038;53.064;8.624;2024-01-15T05:44:01;2.00;99.90
9998;DHT22;5038;53.064;8.624;2024-01-15T05:46:29;2.00;99.90
9998;DHT22;5038;53.064;8.624;2024-01-15T05:48:59;2.00;99.90
9998;DHT22;5038;53.064;8.624;2024-01-15T05:51:27;2.00;99.90
9998;DHT22;5038;53.064;8.624;2024-01-15T05:53:55;2.00;99.90
9998;DHT22;5038;53.064;8.624;2024-01-15T05:56:24;2.00;99.90
9998;DHT22;5038;53.064;8.624;2024-01-15T05:58:52;2.00;99.90
9998;DHT22;5038;53.064;8.624;2024-01-15T06:01:20;2.00;99.90
9998;DHT22;5038;53.064;8.624;2024-01-15T06:03:49;2.00;99.90
9998;DHT22;5038;53.064;8.624;2024-01-15T06:06:19;2.00;99.90
9998;DHT22;5038;53.064;8.624;2024-01-15T06:08:47;2.00;99.90
9998;DHT22;5038;53.064;8.624;2024-01-15T06:11:15;2.00;99.90
9998;DHT22;5038;53.064;8.624;2024-01-15T06:13:44;2.00;99.90
9998;DHT22;5038;53.064;8.624;2024-01-15T06:16:14;2.10;99.90
9998;DHT22;5038;53.064;8.624;2024-01-15T06:18:43;2.10;99.90
9998;DHT22;5038;53.064;8.624;2024-01-15T06:21:11;2.10;99.90
9998;DHT22;5038;53.064;8.624;2024-01-15T06:23:43;2.10;99.90
9998;DHT22;5038;53.064;8.624;2024-01-15T06:26:11;2.10;99.90
9998;DHT22;5038;53.064;8.624;2024-01-15T06:28:40;2.10;99.90
9998;DHT22;5038;53.064;8.624;2024-01-15T06:31:09;2.10;99.90
9998;DHT22;5038;53.064;8.624;2024-01-15T06:33:37;2.00;99.90
9998;DHT22;5038;53.064;8.624;2024-01-15T06:36:06;2.00;99.90
9998;DHT22;5038;53.064;8.624;2024-01-15T06:38:35;2.00;99.90
9998;DHT22;5038;53.064;8.624;2024-01-15T06:41:05;2.10;99.90
9998;DHT22;5038;53.064;8.624;2024-01-15T06:43:33;2.00;99.90
9998;DHT22;5038;53.064;8.624;2024-01-15T06:46:01;2.00;99.90
9998;DHT22;5038;53.064;8.624;2024-01-15T06:48:34;2.00;99.90
9998;DHT22;5038;53.064;8.624;2024-01-15T06:51:03;2.00;99.90
9998;DHT22;5038;53.064;8.624;2024-01-15T06:53:31;2.00;99.90
9998;DHT22;5038;53.064;8.624;2024-01-15T06:56:00;2.00;99.90
9998;DHT22;5038;53.064;8.624;2024-01-15T06:58:31;2.00;99.90
9998;DHT22;5038;53.064;8.624;2024-01-15T07:00:59;2.00;99.90
9998;DHT22;5038;53.064;8.624;2024-01-15T07:03:28;2.00;99.90
9998;DHT22;5038;53.064;8.624;2024-01-15T07:05:57;1.90;99.90
9998;DHT22;5038;53.064;8.624;2024-01-15T07:08:26;1.90;99.90
9998;DHT22;5038;53.064;8.624;2024-01-15T07:10:54;1.90;99.90
9998;DHT22;5038;53.064;8.624;2024-01-15T07:13:22;1.90;99.90
9998;DHT22;5038;53.064;8.624;2024-01-15T07:15:52;1.90;99.90
9998;DHT22;5038;53.064;8.624;2024-01-15T07:18:21;1.90;99.90
9998;DHT22;5038;53.064;8.624;2024-01-15T07:20:49;1.90;99.90
9998;DHT22;5038;53.064;8.624;2024-01-15T07:23:18;1.90;99.90
9998;DHT22;5038;53.064;8.624;2024-01-15T07:25:46;1.90;99.90
9998;DHT22;5038;53.064;8.624;2024-01-15T07:28:15;1.90;99.90
9998;DHT22;5038;53.064;8.624;2024-01-15T07:30:43;2.00;99.90
9998;DHT22;5038;53.064;8.624;2024-01-15T07:33:13;1.90;99.90
9998;DHT22;5038;53.064;8.624;2024-01-15T07:35:42;1.90;99.90
9998;DHT22;5038;53.064;8.624;2024-01-15T07:38:10;2.00;99.90
9998;DHT22;5038;53.064;8.624;2024-01-15T07:40:39;2.00;99.90
9998;DHT22;5038;53.064;8.624;2024-01-15T07:43:07;2.00;99.90
9998;DHT22;5038;53.064;8.624;2024-01-15T07:45:36;2.00;99.90
9998;DHT22;5038;53.064;8.624;2024-01-15T07:48:05;2.00;99.90
9998;DHT22;5038;53.064;8.624;2024-01-15T07:50:35;2.00;99.90
9998;DHT22;5038;53.064;8.624;2024-01-15T07:53:03;1.90;99.90
9998;DHT22;5038;53.064;8.624;2024-01-15T07:55:31;1.90;99.90
9998;DHT22;5038;53.064;8.624;2024-01-15T07:58:00;2.00;99.90
9998;DHT22;5038;53.064;8.624;2024-01-15T08:00:41;1.90;99.90
9998;DHT22;5038;53.064;8.624;2024-01-15T08:03:11;2.00;99.90
9998;DHT22;5038;53.064;8.624;2024-01-15T08:05:41;1.90;99.90
9998;DHT22;5038;53.064;8.624;2024-01-15T08:08:09;1.90;99.90
9998;DHT22;5038;53.064;8.624;2024-01-15T08:10:37;1.90;99.90
9998;DHT22;5038;53.064;8.624;2024-01-15T08:13:05;1.90;99.90
9998;DHT22;5038;53.064;8.624;2024-01-15T08:15:36;1.90;99.90
9998;DHT22;5038;53.064;8.624;2024-01-15T08:18:04;1.90;99.90
9998;DHT22;5038;53.064;8.624;2024-01-15T08:20:33;1.90;99.90
9998;DHT22;5038;53.064;8.624;2024-01-15T08:23:03;1.90;99.90
9998;DHT22;5038;53.064;8.624;2024-01-15T08:25:31;1.90;99.90
9998;DHT22;5038;53.064;8.624;2024-01-15T08:28:00;1.90;99.90
9998;DHT22;5038;53.064;8.624;2024-01-15T08:30:28;1.90;99.90
9998;DHT22;5038;53.064;8.624;2024-01-15T08:32:56;1.90;99.90
9998;DHT22;5038;53.064;8.624;2024-01-15T08:35:34;1.90;99.90
9998;DHT22;5038;53.064;8.624;2024-01-15T08:38:04;1.90;99.90
9998;DHT22;5038;53.064;8.624;2024-01-15T08:40:32;1.90;99.90
9998;DHT22;5038;53.064;8.624;2024-01-15T08:43:01;1.90;99.90
9998;DHT22;5038;53.064;8.624;2024-01-15T08:45:30;1.90;99.90
9998;DHT22;5038;53.064;8.624;2024-01-15T08:47:58;2.00;99.90
9998;DHT22;5038;53.064;8.624;2024-01-15T08:50:28;1.90;99.90
9998;DHT22;5038;53.064;8.624;2024-01-15T08:52:57;1.90;99.90
9998;DHT22;5038;53.064;8.624;2024-01-15T08:55:27;1.90;99.90
9998;DHT22;5038;53.064;8.624;2024-01-15T08:57:55;2.00;99.90
9998;DHT22;5038;53.064;8.624;2024-01-15T09:00:23;2.00;99.90
9998;DHT22;5038;53.064;8.624;2024-01-15T09:02:52;2.00;99.90
9998;DHT22;5038;53.064;8.624;2024-01-15T09:05:20;2.00;99.90
9998;DHT22;5038;53.064;8.624;2024-01-15T09:07:48;2.00;99.90
9998;DHT22;5038;53.064;8.624;2024-01-15T09:10:19;2.10;99.90
9998;DHT22;5038;53.064;8.624;2024-01-15T09:12:48;2.00;99.90
9998;DHT22;5038;53.064;8.624;2024-01-15T09:15:17;2.10;99.90
9998;DHT22;5038;53.064;8.624;2024-01-15T09:17:46;2.10;99.90
9998;DHT22;5038;53.064;8.624;2024-01-15T09:20:14;2.10;99.90
9998;DHT22;5038;53.064;8.624;2024-01-15T09:22:43;2.10;99.90
9998;DHT22;5038;53.064;8.624;2024-01-15T09:25:11;2.10;99.90
9998;DHT22;5038;53.064;8.624;2024-01-15T09:27:40;2.10;99.90
9998;DHT22;5038;53.064;8.624;2024-01-15T09:30:11;2.10;99.90
9998;DHT22;5038;53.064;8.624;2024-01-15T09:32:40;2.20;99.90
9998;DHT22;5038;53.064;8.624;2024-01-15T09:35:08;2.20;99.90
9998;DHT22;5038;53.064;8.624;2024-01-15T09:37:38;2.20;99.90
9998;DHT22;5038;53.064;8.624;2024-01-15T09:40:14;2.30;99.90
9998;DHT22;5038;53.064;8.624;2024-01-15T09:42:47;2.30;99.90
9998;DHT22;5038;53.064;8.624;2024-01-15T09:45:17;2.30;99.90
9998;DHT22;5038;53.064;8.624;2024-01-15T09:47:46;2.30;99.90
9998;DHT22;5038;53.064;8.624;2024-01-15T09:50:14;2.30;99.90
9998;DHT22;5038;53.064;8.624;2024-01-15T09:52:43;2.30;99.90
9998;DHT22;5038;53.064;8.624;2024-01-15T09:55:13;2.30;99.90
9998;DHT22;5038;53.064;8.624;2024-01-15T09:57:44;2.30;99.90
9998;DHT22;5038;53.064;8.624;2024-01-15T10:00:14;2.30;99.90
9998;DHT22;5038;53.064;8.624;2024-01-15T10:02:47;2.30;99.90
9998;DHT22;5038;53.064;8.624;2024-01-15T10:05:16;2.30;99.90
9998;DHT22;5038;53.064;8.624;2024-01-15T10:07:46;2.30;99.90
9998;DHT22;5038;53.064;8.624;2024-01-15T10:10:17;2.30;99.90
9998;DHT22;5038;53.064;8.624;2024-01-15T10:12:45;2.40;99.90
9998;DHT22;5038;53.064;8.624;2024-01-15T10:15:13;2.30;99.90
9998;DHT22;5038;53.064;8.624;2024-01-15T10:17:41;2.40;99.90
9998;DHT22;5038;53.064;8.624;2024-01-15T10:20:12;2.30;99.90
9998;DHT22;5038;53.064;8.624;2024-01-15T10:22:41;2.30;99.90
9998;DHT22;5038;53.064;8.624;2024-01-15T10:25:10;2.30;99.90
9998;DHT22;5038;53.064;8.624;2024-01-15T10:27:40;2.30;99.90
9998;DHT22;5038;53.064;8.624;2024-01-15T10:30:09;2.30;99.90
9998;DHT22;5038;53.064;8.624;2024-01-15T10:32:38;2.30;99.90
9998;DHT22;5038;53.064;8.624;2024-01-15T10:35:08;2.30;99.90
9998;DHT22;5038;53.064;8.624;2024-01-15T10:37:37;2.30;99.90
9998;DHT22;5038;53.064;8.624;2024-01-15T10:40:07;2.20;99.90
9998;DHT22;5038;53.064;8.624;2024-01-15T10:42:35;2.20;99.90
9998;DHT22;5038;53.064;8.624;2024-01-15T10:45:04;2.20;99.90
9998;DHT22;5038;53.064;8.624;2024-01-15T10:47:32;2.20;99.90
9998;DHT22;5038;53.064;8.624;2024-01-15T10:50:01;2.20;99.90
9998;DHT22;5038;53.064;8.624;2024-01-15T10:52:30;2.20;99.90
9998;DHT22;5038;53.064;8.624;2024-01-15T10:55:00;2.10;99.90
9998;DHT22;5038;53.064;8.624;2024-01-15T10:57:35;2.10;99.90
9998;DHT22;5038;53.064;8.624;2024-01-15T11:00:05;2.10;99.90
9998;DHT22;5038;53.064;8.624;2024-01-15T11:02:35;2.10;99.90
9998;DHT22;5038;53.064;8.624;2024-01-15T11:05:05;2.10;99.90
9998;DHT22;5038;53.064;8.624;2024-01-15T11:07:33;2.20;99.90
9998;DHT22;5038;53.064;8.624;2024-01-15T11:10:05;2.20;99.90
9998;DHT22;5038;53.064;8.624;2024-01-15T11:12:41;2.20;99.90
9998;DHT22;5038;53.064;8.624;2024-01-15T11:15:10;2.30;99.90
9998;DHT22;5038;53.064;8.624;2024-01-15T11:18:02;2.30;99.90
9998;DHT22;5038;53.064;8.624;2024-01-15T11:20:32;2.30;99.90
9998;DHT22;5038;53.064;8.624;2024-01-15T11:23:01;2.30;99.90
9998;DHT22;5038;53.064;8.624;2024-01-15T11:25:35;2.30;99.90
9998;DHT22;5038;53.064;8.624;2024-01-15T11:28:05;2.30;99.90
9998;DHT22;5038;53.064;8.624;2024-01-15T11:30:33;2.30;99.90
9998;DHT22;5038;53.064;8.624;2024-01-15T11:33:04;2.40;99.90
9998;DHT22;5038;53.064;8.624;2024-01-15T11:35:50;2.40;99.90
9998;DHT22;5038;53.064;8.624;2024-01-15T11:38:28;2.40;99.90
9998;DHT22;5038;53.064;8.624;2024-01-15T11:40:58;2.40;99.90
9998;DHT22;5038;53.064;8.624;2024-01-15T11:43:28;2.40;99.90
9998;DHT22;5038;53.064;8.624;2024-01-15T11:46:02;2.40;99.90
9998;DHT22;5038;53.064;8.624;2024-01-15T11:48:41;2.40;99.90
9998;DHT22;5038;53.064;8.624;2024-01-15T11:51:11;2.40;99.90
9998;DHT22;5038;53.064;8.624;2024-01-15T11:53:44;2.50;99.90
9998;DHT22;5038;53.064;8.624;2024-01-15T11:56:15;2.50;99.90
9998;DHT22;5038;53.064;8.624;2024-01-15T11:58:44;2.40;99.90
9998;DHT22;5038;53.064;8.624;2024-01-15T12:01:16;2.40;99.90
9998;DHT22;5038;53.064;8.624;2024-01-15T12:03:44;2.40;99.90
9998;DHT22;5038;53.064;8.624;2024-01-15T12:06:15;2.40;99.90
9998;DHT22;5038;53.064;8.624;2024-01-15T12:08:43;2.50;99.90
9998;DHT22;5038;53.064;8.624;2024-01-15T12:11:15;2.40;99.90
9998;DHT22;5038;53.064;8.624;2024-01-15T12:13:45;2.40;99.90
9998;DHT22;5038;53.064;8.624;2024-01-15T12:16:14;2.40;99.90
9998;DHT22;5038;53.064;8.624;2024-01-15T12:18:42;2.40;99.90
9998;DHT22;5038;53.064;8.624;2024-01-15T12:21:10;2.40;99.90
9998;DHT22;5038;53.064;8.624;2024-01-15T12:23:39;2.40;99.90
9998;DHT22;5038;53.064;8.624;2024-01-15T12:26:07;2.50;99.90
9998;DHT22;5038;53.064;8.624;2024-01-15T12:28:38;2.40;99.90
9998;DHT22;5038;53.064;8.624;2024-01-15T12:31:06;2.40;99.90
9998;DHT22;5038;53.064;8.624;2024-01-15T12:33:35;2.50;99.90
9998;DHT22;5038;53.064;8.624;2024-01-15T12:36:04;2.50;99.90
9998;DHT22;5038;53.064;8.624;2024-01-15T12:38:33;2.50;99.90
9998;DHT22;5038;53.064;8.624;2024-01-15T12:41:01;2.60;99.90
9998;DHT22;5038;53.064;8.624;2024-01-15T12:43:29;2.60;99.90
9998;DHT22;5038;53.064;8.624;2024-01-15T12:45:59;2.60;99.90
9998;DHT22;5038;53.064;8.624;2024-01-15T12:48:28;2.60;99.90
9998;DHT22;5038;53.064;8.624;2024-01-15T12:50:56;2.60;99.90
9998;DHT22;5038;53.064;8.624;2024-01-15T12:53:24;2.60;99.90
9998;DHT22;5038;53.064;8.624;2024-01-15T12:55:52;2.60;99.90
9998;DHT22;5038;53.064;8.624;2024-01-15T12:58:21;2.60;99.90
9998;DHT22;5038;53.064;8.624;2024-01-15T13:00:49;2.60;99.90
9998;DHT22;5038;53.064;8.624;2024-01-15T13:03:19;2.60;99.90
9998;DHT22;5038;53.064;8.624;2024-01-15T13:05:48;2.50;99.90
9998;DHT22;5038;53.064;8.624;2024-01-15T13:08:17;2.50;99.90
9998;DHT22;5038;53.064;8.624;2024-01-15T13:10:45;2.50;99.90
9998;DHT22;5038;53.064;8.624;2024-01-15T13:13:13;2.60;99.90
9998;DHT22;5038;53.064;8.624;2024-01-15T13:15:42;2.60;99.90
9998;DHT22;5038;53.064;8.624;2024-01-15T13:18:10;2.60;99.90
9998;DHT22;5038;53.064;8.624;2024-01-15T13:20:41;2.60;99.90
9998;DHT22;5038;53.064;8.624;2024-01-15T13:23:10;2.60;99.90
9998;DHT22;5038;53.064;8.624;2024-01-15T13:25:38;2.50;99.90
9998;DHT22;5038;53.064;8.624;2024-01-15T13:28:06;2.60;99.90
9998;DHT22;5038;53.064;8.624;2024-01-15T13:30:36;2.60;99.90
9998;DHT22;5038;53.064;8.624;2024-01-15T13:33:04;2.50;99.90
9998;DHT22;5038;53.064;8.624;2024-01-15T13:35:33;2.50;99.90
9998;DHT22;5038;53.064;8.624;2024-01-15T13:38:04;2.50;99.90
9998;DHT22;5038;53.064;8.624;2024-01-15T13:40:32;2.50;99.90
9998;DHT22;5038;53.064;8.624;2024-01-15T13:43:00;2.40;99.90
9998;DHT22;5038;53.064;8.624;2024-01-15T13:45:32;2.30;99.90
9998;DHT22;5038;53.064;8.624;2024-01-15T13:48:01;2.30;99.90
9998;DHT22;5038;53.064;8.624;2024-01-15T13:50:32;2.30;99.90
9998;DHT22;5038;53.064;8.624;2024-01-15T13:53:01;2.30;99.90
9998;DHT22;5038;53.064;8.624;2024-01-15T13:55:32;2.20;99.90
9998;DHT22;5038;53.064;8.624;2024-01-15T13:58:00;2.20;99.90
9998;DHT22;5038;53.064;8.624;2024-01-15T14:00:31;2.20;99.90
9998;DHT22;5038;53.064;8.624;2024-01-15T14:02:59;2.20;99.90
9998;DHT22;5038;53.064;8.624;2024-01-15T14:05:27;2.10;99.90
9998;DHT22;5038;53.064;8.624;2024-01-15T14:07:56;2.10;99.90
9998;DHT22;5038;53.064;8.624;2024-01-15T14:10:25;2.10;99.90
9998;DHT22;5038;53.064;8.624;2024-01-15T14:12:55;2.10;99.90
9998;DHT22;5038;53.064;8.624;2024-01-15T14:15:23;2.20;99.90
9998;DHT22;5038;53.064;8.624;2024-01-15T14:17:51;2.20;99.90
9998;DHT22;5038;53.064;8.624;2024-01-15T14:20:20;2.20;99.90
9998;DHT22;5038;53.064;8.624;2024-01-15T14:22:49;2.20;99.90
9998;DHT22;5038;53.064;8.624;2024-01-15T14:25:17;2.20;99.90
9998;DHT22;5038;53.064;8.624;2024-01-15T14:27:45;2.20;99.90
9998;DHT22;5038;53.064;8.624;2024-01-15T14:30:15;2.20;99.90
9998;DHT22;5038;53.064;8.624;2024-01-15T14:32:44;2.20;99.90
9998;DHT22;5038;53.064;8.624;2024-01-15T14:35:12;2.20;99.90
9998;DHT22;5038;53.064;8.624;2024-01-15T14:37:41;2.20;99.90
9998;DHT22;5038;53.064;8.624;2024-01-15T14:40:10;2.20;99.90
9998;DHT22;5038;53.064;8.624;2024-01-15T14:42:41;2.20;99.90
9998;DHT22;5038;53.064;8.624;2024-01-15T14:45:10;2.20;99.90
9998;DHT22;5038;53.064;8.624;2024-01-15T14:47:41;2.20;99.90
9998;DHT22;5038;53.064;8.624;2024-01-15T14:50:11;2.10;99.90
9998;DHT22;5038;53.064;8.624;2024-01-15T14:52:39;2.20;99.90
9998;DHT22;5038;53.064;8.624;2024-01-15T14:55:09;2.10;99.90
9998;DHT22;5038;53.064;8.624;2024-01-15T14:57:38;2.10;99.90
9998;DHT22;5038;53.064;8.624;2024-01-15T15:00:07;2.10;99.90
9998;DHT22;5038;53.064;8.624;2024-01-15T15:02:36;2.10;99.90
9998;DHT22;5038;53.064;8.624;2024-01-15T15:05:07;2.10;99.90
9998;DHT22;5038;53.064;8.624;2024-01-15T15:07:35;2.10;99.90
9998;DHT22;5038;53.064;8.624;2024-01-15T15:10:05;2.10;99.90
9998;DHT22;5038;53.064;8.624;2024-01-15T15:12:33;2.10;99.90
9998;DHT22;5038;53.064;8.624;2024-01-15T15:15:02;2.10;99.90
9998;DHT22;5038;53.064;8.624;2024-01-15T15:17:37;2.00;99.90
9998;DHT22;5038;53.064;8.624;2024-01-15T15:20:08;2.10;99.90
9998;DHT22;5038;53.064;8.624;2024-01-15T15:22:36;2.00;99.90
9998;DHT22;5038;53.064;8.624;2024-01-15T15:25:05;2.00;99.90
9998;DHT22;5038;53.064;8.624;2024-01-15T15:27:36;2.00;99.90
9998;DHT22;5038;53.064;8.624;2024-01-15T15:30:06;2.00;99.90
9998;DHT22;5038;53.064;8.624;2024-01-15T15:32:34;2.00;99.90
9998;DHT22;5038;53.064;8.624;2024-01-15T15:35:03;2.10;99.90
9998;DHT22;5038;53.064;8.624;2024-01-15T15:37:33;2.00;99.90
9998;DHT22;5038;53.064;8.624;2024-01-15T15:40:01;2.00;99.90
9998;DHT22;5038;53.064;8.624;2024-01-15T15:42:30;2.00;99.90
9998;DHT22;5038;53.064;8.624;2024-01-15T15:44:58;2.00;99.90
9998;DHT22;5038;53.064;8.624;2024-01-15T15:47:29;1.90;99.90
9998;DHT22;5038;53.064;8.624;2024-01-15T15:49:57;2.00;99.90
9998;DHT22;5038;53.064;8.624;2024-01-15T15:52:26;1.90;99.90
9998;DHT22;5038;53.064;8.624;2024-01-15T15:54:56;1.90;99.90
9998;DHT22;5038;53.064;8.624;2024-01-15T15:57:25;1.90;99.90
9998;DHT22;5038;53.064;8.624;2024-01-15T15:59:54;1.90;99.90
9998;DHT22;5038;53.064;8.624;2024-01-15T16:02:23;2.00;99.90
9998;DHT22;5038;53.064;8.624;2024-01-15T16:04:51;1.90;99.90
9998;DHT22;5038;53.064;8.624;2024-01-15T16:07:20;1.90;99.90
9998;DHT22;5038;53.064;8.624;2024-01-15T16:09:48;1.90;99.90
9998;DHT22;5038;53.064;8.624;2024-01-15T16:12:18;2.00;99.90
9998;DHT22;5038;53.064;8.624;2024-01-15T16:14:46;1.90;99.90
9998;DHT22;5038;53.064;8.624;2024-01-15T16:17:14;1.90;99.90
9998;DHT22;5038;53.064;8.624;2024-01-15T16:20:03;1.90;99.90
9998;DHT22;5038;53.064;8.624;2024-01-15T16:22:51;1.90;99.90
9998;DHT22;5038;53.064;8.624;2024-01-15T16:25:40;1.90;99.90
9998;DHT22;5038;53.064;8.624;2024-01-15T16:28:10;1.90;99.90
9998;DHT22;5038;53.064;8.624;2024-01-15T16:30:38;1.90;99.90